Time;durP1;ratioP1;P1;durP2;ratioP2;P2;SDS_P1;SDS_P2;PMS_P1;PMS_P2;Temp;Humidity;BMP_temperature;BMP_pressure;BME280_temperature;BME280_humidity;BME280_pressure;Samples;Min_cycle;Max_cycle;Signal;HPM_P1;HPM_P2
2022/07/30 00:01:39;;;;;;;7.97;2.80;;;;;;;16.96;100.00;96674.69;4962346;28;20034;-72
2022/07/30 00:04:05;;;;;;;5.05;2.65;;;;;;;16.93;100.00;96675.25;4967047;28;20169;-72
2022/07/30 00:06:31;;;;;;;7.20;3.75;;;;;;;16.85;100.00;96673.16;4967734;28;20084;-72
2022/07/30 00:08:57;;;;;;;12.20;3.45;;;;;;;16.86;100.00;96663.94;4964346;28;20714;-72
2022/07/30 00:11:23;;;;;;;10.18;3.10;;;;;;;16.84;100.00;96666.13;4965922;28;20031;-72
2022/07/30 00:13:48;;;;;;;9.75;3.05;;;;;;;16.76;100.00;96664.03;4965537;28;20058;-72
2022/07/30 00:16:14;;;;;;;6.97;2.85;;;;;;;16.78;100.00;96661.06;4966997;28;20552;-72
2022/07/30 00:18:39;;;;;;;10.52;3.08;;;;;;;16.61;100.00;96667.63;4939361;28;20037;-73
2022/07/30 00:21:05;;;;;;;8.40;3.55;;;;;;;16.64;100.00;96660.84;4955730;28;20030;-73
2022/07/30 00:23:31;;;;;;;7.25;2.70;;;;;;;16.69;100.00;96653.56;4967865;28;20037;-72
2022/07/30 00:25:57;;;;;;;5.25;3.00;;;;;;;16.77;100.00;96654.84;4965624;28;20290;-72
2022/07/30 00:28:23;;;;;;;6.60;2.97;;;;;;;16.64;100.00;96642.75;4965627;28;20043;-72
2022/07/30 00:30:49;;;;;;;6.13;3.10;;;;;;;16.60;100.00;96638.22;4964798;28;20467;-72
2022/07/30 00:33:14;;;;;;;8.10;2.97;;;;;;;16.50;100.00;96635.56;4964753;28;20037;-72
2022/07/30 00:35:44;;;;;;;8.02;3.80;;;;;;;16.48;100.00;96633.16;4965484;28;20073;-72
2022/07/30 00:38:10;;;;;;;6.80;2.88;;;;;;;16.50;100.00;96619.38;4964857;28;20037;-72
2022/07/30 00:40:35;;;;;;;8.70;3.13;;;;;;;16.35;100.00;96631.91;4963705;28;20116;-72
2022/07/30 00:43:01;;;;;;;7.35;3.47;;;;;;;16.13;100.00;96643.13;4964340;28;20113;-73
2022/07/30 00:45:27;;;;;;;10.20;3.45;;;;;;;16.12;100.00;96636.13;4965575;28;20058;-73
2022/07/30 00:47:52;;;;;;;6.53;3.33;;;;;;;16.01;100.00;96639.13;4964154;28;20112;-72
2022/07/30 00:50:18;;;;;;;7.43;3.50;;;;;;;15.99;100.00;96644.81;4966091;28;20100;-72
2022/07/30 00:52:44;;;;;;;9.88;3.30;;;;;;;16.10;100.00;96645.56;4949413;28;20191;-72
2022/07/30 00:55:12;;;;;;;8.40;3.47;;;;;;;16.19;100.00;96637.69;4965950;28;20485;-72
2022/07/30 00:57:38;;;;;;;5.45;3.10;;;;;;;16.23;100.00;96636.84;4963540;28;20076;-73
2022/07/30 01:00:07;;;;;;;11.88;3.30;;;;;;;16.23;100.00;96636.03;4965855;28;20046;-73
2022/07/30 01:02:33;;;;;;;7.97;3.15;;;;;;;16.22;100.00;96629.84;4962091;28;20397;-72
2022/07/30 01:04:59;;;;;;;14.40;3.60;;;;;;;16.17;100.00;96630.66;4967250;28;20436;-72
2022/07/30 01:07:24;;;;;;;8.27;3.53;;;;;;;16.15;100.00;96632.03;4965634;28;20460;-72
2022/07/30 01:09:49;;;;;;;6.97;3.15;;;;;;;16.13;100.00;96631.53;4962565;28;20077;-72
2022/07/30 01:12:20;;;;;;;8.15;3.17;;;;;;;16.01;100.00;96631.84;4964644;28;20139;-72
2022/07/30 01:14:47;;;;;;;9.18;3.63;;;;;;;15.97;100.00;96640.78;4966520;28;20042;-72
2022/07/30 01:17:12;;;;;;;7.00;3.20;;;;;;;15.94;100.00;96638.63;4965425;28;20026;-72
2022/07/30 01:19:54;;;;;;;8.85;3.05;;;;;;;15.98;100.00;96637.00;4965261;28;20350;-73
2022/07/30 01:22:29;;;;;;;8.50;3.17;;;;;;;15.97;100.00;96633.50;4963897;28;20039;-72
2022/07/30 01:24:54;;;;;;;11.63;3.55;;;;;;;15.90;100.00;96637.59;4966070;28;20540;-72
2022/07/30 01:27:22;;;;;;;9.65;3.92;;;;;;;15.73;100.00;96641.44;4946005;28;20038;-72
2022/07/30 01:29:51;;;;;;;8.85;3.40;;;;;;;15.58;100.00;96646.88;4965096;28;20888;-72
2022/07/30 01:32:20;;;;;;;8.50;3.78;;;;;;;15.42;100.00;96634.53;4963360;28;20126;-72
2022/07/30 01:34:46;;;;;;;7.25;3.55;;;;;;;15.53;100.00;96649.56;4946169;28;20470;-72
2022/07/30 01:37:14;;;;;;;6.93;3.13;;;;;;;15.55;100.00;96647.41;4947323;28;20125;-72
2022/07/30 01:39:40;;;;;;;6.47;3.22;;;;;;;15.60;100.00;96648.19;4945820;28;20035;-73
2022/07/30 01:42:09;;;;;;;9.85;3.67;;;;;;;15.57;100.00;96653.34;4945044;28;20371;-72
2022/07/30 01:44:37;;;;;;;5.78;2.92;;;;;;;15.56;100.00;96654.41;4963095;28;20068;-72
2022/07/30 01:47:05;;;;;;;6.47;3.28;;;;;;;15.26;100.00;96649.94;4945281;28;20097;-73
2022/07/30 01:49:34;;;;;;;7.88;3.13;;;;;;;14.98;100.00;96657.50;4961974;28;20117;-72
2022/07/30 01:52:01;;;;;;;6.70;3.28;;;;;;;14.88;100.00;96659.44;4947061;28;20041;-72
2022/07/30 01:54:30;;;;;;;7.22;3.38;;;;;;;14.81;100.00;96661.59;4946656;28;20177;-72
2022/07/30 01:56:58;;;;;;;8.90;3.75;;;;;;;14.75;100.00;96663.47;4945091;28;20143;-72
2022/07/30 01:59:27;;;;;;;9.88;4.10;;;;;;;14.80;100.00;96663.47;4963218;28;20031;-72
2022/07/30 02:01:52;;;;;;;6.78;3.65;;;;;;;14.96;100.00;96658.88;4962716;28;20525;-72
2022/07/30 02:04:18;;;;;;;13.10;3.75;;;;;;;15.05;100.00;96663.44;4946772;28;20038;-72
2022/07/30 02:06:50;;;;;;;8.98;3.53;;;;;;;14.93;100.00;96662.09;4946842;28;20054;-72
2022/07/30 02:09:26;;;;;;;8.38;3.88;;;;;;;14.91;100.00;96662.38;4962252;28;20034;-72
2022/07/30 02:14:53;;;;;;;11.98;4.20;;;;;;;14.79;100.00;96666.44;4966091;28;20034;-72
2022/07/30 02:17:31;;;;;;;9.02;3.60;;;;;;;14.73;100.00;96666.44;4962696;28;20581;-72
2022/07/30 02:19:59;;;;;;;6.38;3.72;;;;;;;14.80;100.00;96662.66;4963733;28;20142;-72
2022/07/30 02:22:30;;;;;;;12.77;3.50;;;;;;;14.84;100.00;96650.25;4960685;28;20093;-72
2022/07/30 02:24:59;;;;;;;8.07;3.65;;;;;;;14.78;100.00;96660.22;4946499;28;20583;-72
2022/07/30 02:27:29;;;;;;;8.50;3.50;;;;;;;14.83;100.00;96654.03;4947832;28;20041;-72
2022/07/30 02:29:58;;;;;;;7.35;3.47;;;;;;;14.87;100.00;96660.50;4965947;28;20066;-73
2022/07/30 02:32:25;;;;;;;5.68;3.28;;;;;;;14.90;100.00;96659.94;4963166;28;20121;-73
2022/07/30 02:34:57;;;;;;;7.10;3.60;;;;;;;14.90;100.00;96658.06;4947069;28;20380;-72
2022/07/30 02:37:25;;;;;;;7.18;3.78;;;;;;;14.69;100.00;96664.53;4962330;28;20042;-72
2022/07/30 02:39:54;;;;;;;9.55;4.15;;;;;;;14.67;100.00;96672.09;4963481;28;20042;-73
2022/07/30 02:42:22;;;;;;;6.90;3.63;;;;;;;14.61;100.00;96667.75;4946093;28;20108;-72
2022/07/30 02:44:51;;;;;;;9.60;4.28;;;;;;;14.62;100.00;96667.50;4944767;28;20023;-72
2022/07/30 02:47:22;;;;;;;7.50;4.05;;;;;;;14.62;100.00;96669.38;4963766;28;20401;-72
2022/07/30 02:49:53;;;;;;;7.32;4.20;;;;;;;14.38;100.00;96671.75;4947487;28;20074;-72
2022/07/30 02:52:23;;;;;;;7.25;4.32;;;;;;;14.35;100.00;96675.78;4961748;28;20129;-72
2022/07/30 02:54:51;;;;;;;9.65;3.85;;;;;;;14.38;100.00;96677.13;4945665;28;20038;-72
2022/07/30 02:57:20;;;;;;;9.10;4.57;;;;;;;14.34;100.00;96674.19;4962493;28;20405;-72
2022/07/30 02:59:48;;;;;;;6.53;3.95;;;;;;;14.39;100.00;96671.47;4947203;28;20058;-72
2022/07/30 03:02:14;;;;;;;9.07;4.28;;;;;;;14.40;100.00;96675.81;4945946;28;20463;-72
2022/07/30 03:04:41;;;;;;;11.15;4.13;;;;;;;14.37;100.00;96675.50;4962816;28;20474;-72
2022/07/30 03:07:09;;;;;;;10.15;4.25;;;;;;;14.22;100.00;96670.91;4962331;28;20097;-72
2022/07/30 03:09:41;;;;;;;9.18;4.32;;;;;;;14.24;100.00;96663.41;4964494;28;20034;-73
2022/07/30 03:12:09;;;;;;;9.05;4.30;;;;;;;14.29;100.00;96663.41;4962016;28;20335;-72
2022/07/30 03:14:34;;;;;;;7.47;4.60;;;;;;;14.34;100.00;96671.47;4933136;28;20112;-72
2022/07/30 03:17:03;;;;;;;9.38;4.93;;;;;;;14.35;100.00;96664.22;4947926;28;20062;-72
2022/07/30 03:19:31;;;;;;;8.48;4.63;;;;;;;14.21;100.00;96666.59;4951513;28;20264;-73
2022/07/30 03:22:01;;;;;;;8.05;4.70;;;;;;;14.11;100.00;96672.78;4951638;28;20556;-72
2022/07/30 03:24:29;;;;;;;10.52;4.40;;;;;;;14.01;100.00;96671.94;4957026;28;20184;-72
2022/07/30 03:26:56;;;;;;;10.13;4.82;;;;;;;13.90;100.00;96676.47;4965862;28;20043;-72
2022/07/30 03:29:26;;;;;;;8.98;4.47;;;;;;;13.94;100.00;96675.69;4950750;28;20029;-72
2022/07/30 03:31:52;;;;;;;10.02;4.88;;;;;;;14.00;100.00;96676.50;4948715;28;20509;-72
2022/07/30 03:34:19;;;;;;;11.25;5.13;;;;;;;13.88;100.00;96687.50;4949586;28;20442;-72
2022/07/30 03:36:46;;;;;;;11.00;5.30;;;;;;;13.92;100.00;96685.09;4949152;28;20039;-72
2022/07/30 03:39:12;;;;;;;8.23;4.63;;;;;;;13.91;100.00;96680.78;4950123;28;20433;-72
2022/07/30 03:41:39;;;;;;;9.85;5.07;;;;;;;13.96;100.00;96677.31;4966114;28;20109;-73
2022/07/30 03:44:09;;;;;;;10.38;4.80;;;;;;;13.90;100.00;96692.63;4949719;28;20113;-72
2022/07/30 03:46:35;;;;;;;9.38;5.00;;;;;;;13.82;100.00;96685.06;4948552;28;20045;-72
2022/07/30 03:49:04;;;;;;;14.23;5.00;;;;;;;13.83;100.00;96690.16;4948093;28;20030;-72
2022/07/30 03:51:33;;;;;;;8.57;5.18;;;;;;;13.91;100.00;96686.97;4964413;28;20118;-73
2022/07/30 03:54:00;;;;;;;9.65;4.78;;;;;;;13.94;100.00;96691.03;4947631;28;20038;-72
2022/07/30 03:56:38;;;;;;;10.68;5.40;;;;;;;13.80;100.00;96689.91;4965222;28;20030;-73
2022/07/30 03:59:07;;;;;;;9.15;5.13;;;;;;;13.79;100.00;96689.09;4945987;28;20120;-72
2022/07/30 04:01:36;;;;;;;9.70;5.35;;;;;;;13.79;100.00;96688.28;4947034;28;20042;-72
2022/07/30 04:04:10;;;;;;;9.90;5.43;;;;;;;13.79;100.00;96694.47;4964896;28;20486;-72
2022/07/30 04:06:41;;;;;;;12.48;5.47;;;;;;;13.79;100.00;96702.53;4947438;28;20067;-72
2022/07/30 04:09:10;;;;;;;12.18;5.10;;;;;;;13.82;100.00;96693.13;4948259;28;20149;-73
2022/07/30 04:11:37;;;;;;;9.82;5.50;;;;;;;13.76;100.00;96704.94;4948643;28;20093;-72
2022/07/30 04:14:08;;;;;;;10.75;5.57;;;;;;;13.68;100.00;96705.44;4948836;28;20367;-72
2022/07/30 04:16:57;;;;;;;9.93;5.90;;;;;;;13.59;100.00;96715.88;4963888;28;20536;-73
2022/07/30 04:19:28;;;;;;;15.02;5.28;;;;;;;13.62;100.00;96718.06;4966162;28;20117;-72
2022/07/30 04:21:56;;;;;;;11.55;5.88;;;;;;;13.67;100.00;96723.44;4949785;28;20042;-72
2022/07/30 04:24:23;;;;;;;16.70;5.78;;;;;;;13.67;100.00;96723.44;4968447;28;20826;-72
2022/07/30 04:26:50;;;;;;;15.50;5.55;;;;;;;13.65;100.00;96712.16;4959460;28;20133;-73
2022/07/30 04:29:17;;;;;;;10.98;5.72;;;;;;;13.65;100.00;96722.91;4963756;28;20101;-72
2022/07/30 04:31:43;;;;;;;8.32;5.43;;;;;;;13.62;100.00;96718.88;4963760;28;20046;-73
2022/07/30 04:34:35;;;;;;;8.63;5.20;;;;;;;13.62;100.00;96724.25;4964942;28;20708;-72
2022/07/30 04:37:03;;;;;;;10.98;6.03;;;;;;;13.73;100.00;96724.28;4964748;28;20563;-73
2022/07/30 04:39:29;;;;;;;13.10;6.10;;;;;;;13.83;100.00;96727.03;4948987;28;20039;-72
2022/07/30 04:41:54;;;;;;;11.10;5.97;;;;;;;13.81;100.00;96724.59;4968982;28;20824;-72
2022/07/30 04:44:33;;;;;;;10.40;5.65;;;;;;;13.88;100.00;96725.16;4967824;28;20077;-72
2022/07/30 04:47:25;;;;;;;9.73;5.05;;;;;;;13.97;100.00;96730.84;4961548;28;20047;-72
2022/07/30 04:50:27;;;;;;;13.15;5.88;;;;;;;14.04;100.00;96738.69;4946197;28;20216;-72
2022/07/30 04:52:55;;;;;;;14.45;6.05;;;;;;;14.05;100.00;96745.69;4946516;28;20038;-72
2022/07/30 04:55:26;;;;;;;10.77;6.13;;;;;;;14.11;100.00;96739.25;4965306;28;20933;-72
2022/07/30 04:57:53;;;;;;;9.27;6.22;;;;;;;14.18;100.00;96745.19;4945506;28;20485;-72
2022/07/30 05:00:20;;;;;;;11.20;6.22;;;;;;;14.22;100.00;96748.97;4965524;28;20042;-72
2022/07/30 05:02:48;;;;;;;15.77;6.90;;;;;;;14.29;100.00;96752.22;4947557;28;20026;-72
2022/07/30 05:05:16;;;;;;;14.05;6.90;;;;;;;14.37;100.00;96753.59;4948940;28;20034;-72
2022/07/30 05:07:44;;;;;;;21.08;9.90;;;;;;;14.45;100.00;96750.38;4947921;28;20055;-73
2022/07/30 05:10:11;;;;;;;30.00;13.05;;;;;;;14.56;100.00;96756.63;4926872;28;20102;-72
2022/07/30 05:12:37;;;;;;;31.00;12.63;;;;;;;14.68;100.00;96743.72;4942137;28;20476;-73
2022/07/30 05:15:04;;;;;;;22.00;11.18;;;;;;;14.80;100.00;96752.38;4927474;28;20074;-72
2022/07/30 05:17:30;;;;;;;22.23;11.23;;;;;;;14.90;100.00;96751.56;4941247;28;20038;-72
2022/07/30 05:19:55;;;;;;;20.83;10.40;;;;;;;14.99;100.00;96755.31;4924918;28;20039;-72
2022/07/30 05:22:21;;;;;;;19.52;9.00;;;;;;;15.07;100.00;96752.09;4927806;28;20508;-73
2022/07/30 05:24:47;;;;;;;20.60;9.40;;;;;;;15.13;100.00;96756.41;4941858;28;20273;-73
2022/07/30 05:27:12;;;;;;;15.10;8.55;;;;;;;15.20;100.00;96756.16;4941319;28;20067;-73
2022/07/30 05:29:38;;;;;;;14.65;8.35;;;;;;;15.26;100.00;96752.38;4926367;28;20031;-73
2022/07/30 05:32:10;;;;;;;17.85;7.70;;;;;;;15.28;100.00;96751.00;4922528;28;20067;-73
2022/07/30 05:34:36;;;;;;;18.70;7.80;;;;;;;15.35;100.00;96753.44;4928994;28;20544;-73
2022/07/30 05:37:02;;;;;;;16.73;8.00;;;;;;;15.42;100.00;96756.66;4925541;28;20070;-72
2022/07/30 05:39:28;;;;;;;16.70;7.25;;;;;;;15.49;100.00;96761.78;4940586;28;20031;-73
2022/07/30 05:42:26;;;;;;;14.70;7.60;;;;;;;15.53;100.00;96752.84;4926801;28;20217;-73
2022/07/30 05:44:55;;;;;;;12.40;7.35;;;;;;;15.58;100.00;96762.84;4931981;28;20402;-73
2022/07/30 05:47:21;;;;;;;12.43;7.50;;;;;;;15.60;100.00;96760.66;4926960;28;20067;-73
2022/07/30 05:49:48;;;;;;;13.15;7.47;;;;;;;15.65;100.00;96766.09;4925566;28;20062;-73
2022/07/30 05:52:13;;;;;;;14.75;7.60;;;;;;;15.68;100.00;96768.25;4931654;28;20039;-73
2022/07/30 05:54:40;;;;;;;14.70;7.72;;;;;;;15.70;100.00;96768.75;4925478;28;20040;-73
2022/07/30 05:57:23;;;;;;;15.10;7.78;;;;;;;15.73;100.00;96767.44;4927299;28;20349;-73
2022/07/30 05:59:49;;;;;;;11.98;7.32;;;;;;;15.75;100.00;96759.88;4940968;28;20565;-73
2022/07/30 06:02:22;;;;;;;14.65;7.60;;;;;;;15.80;100.00;96768.75;4924941;28;20414;-73
2022/07/30 06:04:58;;;;;;;14.82;7.70;;;;;;;15.82;100.00;96769.28;4938643;28;20035;-72
2022/07/30 06:07:24;;;;;;;13.82;7.78;;;;;;;15.75;100.00;96770.66;4939955;28;20058;-73
2022/07/30 06:09:52;;;;;;;13.43;8.38;;;;;;;15.86;100.00;96770.34;4921903;28;20047;-73
2022/07/30 06:12:18;;;;;;;18.60;7.50;;;;;;;15.95;100.00;96780.56;4940095;28;20451;-73
2022/07/30 06:14:43;;;;;;;13.73;7.97;;;;;;;16.03;100.00;96778.13;4941000;28;20289;-73
2022/07/30 06:17:14;;;;;;;17.10;7.70;;;;;;;15.94;100.00;96781.66;4939690;28;20039;-72
2022/07/30 06:20:00;;;;;;;12.45;7.55;;;;;;;15.91;100.00;96779.53;4924939;28;20047;-72
2022/07/30 06:22:28;;;;;;;16.70;8.65;;;;;;;15.99;100.00;96776.25;4930730;28;20043;-73
2022/07/30 06:24:56;;;;;;;14.70;7.93;;;;;;;16.03;100.00;96780.84;4923885;28;20047;-73
2022/07/30 06:27:26;;;;;;;17.27;8.77;;;;;;;16.11;100.00;96776.75;4925051;28;20031;-72
2022/07/30 06:29:52;;;;;;;18.05;8.65;;;;;;;16.21;100.00;96776.72;4931332;28;20043;-73
2022/07/30 06:32:18;;;;;;;13.27;8.23;;;;;;;16.26;100.00;96778.56;4938868;28;20509;-72
2022/07/30 06:34:44;;;;;;;17.70;8.52;;;;;;;16.12;100.00;96783.78;4924798;28;20079;-72
2022/07/30 06:37:10;;;;;;;18.60;9.00;;;;;;;16.24;100.00;96783.44;4938999;28;20043;-73
2022/07/30 06:39:35;;;;;;;13.57;8.07;;;;;;;16.42;100.00;96788.25;4939027;28;20483;-73
2022/07/30 06:42:21;;;;;;;12.65;7.72;;;;;;;16.78;100.00;96780.75;4930377;28;20046;-72
2022/07/30 06:45:19;;;;;;;12.98;7.30;;;;;;;16.79;100.00;96784.25;4927423;28;20442;-72
2022/07/30 06:48:08;;;;;;;13.55;8.43;;;;;;;16.48;100.00;96786.31;4925362;28;20131;-73
2022/07/30 06:50:35;;;;;;;12.05;8.05;;;;;;;16.62;100.00;96788.13;4944021;28;20035;-72
2022/07/30 06:53:01;;;;;;;14.18;8.23;;;;;;;16.71;100.00;96788.38;4929900;28;20234;-73
2022/07/30 06:55:39;;;;;;;17.35;8.75;;;;;;;16.78;100.00;96790.75;4927921;28;20110;-72
2022/07/30 06:58:05;;;;;;;17.55;9.98;;;;;;;16.82;100.00;96795.34;4929965;28;20044;-72
2022/07/30 07:00:49;;;;;;;13.55;8.55;;;;;;;16.95;100.00;96791.19;4930831;28;20113;-73
2022/07/30 07:03:15;;;;;;;15.48;8.75;;;;;;;17.06;100.00;96792.75;4942587;28;20442;-73
2022/07/30 07:05:40;;;;;;;14.38;10.00;;;;;;;16.82;100.00;96781.81;4929019;28;20027;-73
2022/07/30 07:08:06;;;;;;;16.25;9.45;;;;;;;16.80;100.00;96793.97;4958334;28;20058;-73
2022/07/30 07:10:36;;;;;;;17.90;9.87;;;;;;;16.89;100.00;96793.13;4967902;28;20061;-73
2022/07/30 07:13:09;;;;;;;13.07;9.77;;;;;;;17.08;100.00;96795.97;4948093;28;20758;-72
2022/07/30 07:15:35;;;;;;;17.90;9.73;;;;;;;17.18;100.00;96795.06;4969525;28;20039;-73
2022/07/30 07:18:01;;;;;;;17.30;10.38;;;;;;;17.26;100.00;96794.47;4963657;28;20039;-73
2022/07/30 07:20:49;;;;;;;15.90;10.70;;;;;;;17.36;100.00;96788.19;4959896;28;20434;-73
2022/07/30 07:23:15;;;;;;;14.38;10.15;;;;;;;17.44;100.00;96796.50;4966376;28;20038;-73
2022/07/30 07:25:41;;;;;;;17.10;10.43;;;;;;;17.52;100.00;96795.88;4950480;28;20038;-72
2022/07/30 07:28:08;;;;;;;19.08;11.43;;;;;;;17.58;100.00;96799.31;4958040;28;20042;-72
2022/07/30 07:30:33;;;;;;;18.08;10.57;;;;;;;17.61;100.00;96797.97;4966390;28;20333;-72
2022/07/30 07:33:01;;;;;;;16.05;10.27;;;;;;;17.73;100.00;96806.53;4965110;28;20062;-73
2022/07/30 07:35:26;;;;;;;20.63;10.55;;;;;;;17.80;100.00;96796.97;4957245;28;20121;-73
2022/07/30 07:37:52;;;;;;;16.00;10.98;;;;;;;17.82;100.00;96799.44;4949250;28;20428;-72
2022/07/30 07:40:21;;;;;;;23.90;12.13;;;;;;;17.80;100.00;96796.19;4947584;28;20529;-72
2022/07/30 07:42:47;;;;;;;18.73;11.32;;;;;;;17.96;100.00;96791.41;4949164;28;20039;-72
2022/07/30 07:45:16;;;;;;;18.27;10.85;;;;;;;18.12;100.00;96792.03;4937860;28;20125;-73
2022/07/30 07:47:49;;;;;;;22.92;10.30;;;;;;;18.29;100.00;96792.41;4951377;28;20323;-73
2022/07/30 07:50:25;;;;;;;19.58;10.23;;;;;;;18.32;100.00;96803.44;4965149;28;20073;-72
2022/07/30 07:52:51;;;;;;;16.13;11.25;;;;;;;18.40;100.00;96795.78;4948716;28;20478;-73
2022/07/30 07:55:17;;;;;;;16.63;10.88;;;;;;;18.42;100.00;96790.88;4940916;28;20044;-73
2022/07/30 07:57:44;;;;;;;16.15;10.30;;;;;;;18.44;100.00;96788.66;4967189;28;20332;-73
2022/07/30 08:00:19;;;;;;;23.48;10.70;;;;;;;18.52;100.00;96791.56;4950451;28;20498;-73
2022/07/30 08:02:45;;;;;;;17.38;9.85;;;;;;;18.67;100.00;96787.03;4966858;28;20026;-73
2022/07/30 08:05:11;;;;;;;16.58;9.77;;;;;;;18.74;100.00;96790.19;4946730;28;20577;-73
2022/07/30 08:07:49;;;;;;;18.80;9.25;;;;;;;18.84;100.00;96795.50;4948840;28;20054;-73
2022/07/30 08:10:33;;;;;;;14.40;10.23;;;;;;;18.81;100.00;96786.03;4968352;28;20504;-73
2022/07/30 08:13:02;;;;;;;12.80;8.85;;;;;;;18.90;100.00;96786.16;4965922;28;20225;-73
2022/07/30 08:15:48;;;;;;;17.10;9.55;;;;;;;19.04;100.00;96787.03;4968138;28;20109;-73
2022/07/30 08:18:34;;;;;;;18.58;10.23;;;;;;;19.24;100.00;96790.56;4965534;28;20093;-73
2022/07/30 08:21:09;;;;;;;17.23;9.05;;;;;;;19.33;100.00;96783.34;4950303;28;20386;-73
2022/07/30 08:23:36;;;;;;;18.85;9.38;;;;;;;19.43;100.00;96780.47;4965014;28;20346;-73
2022/07/30 08:26:01;;;;;;;19.02;10.05;;;;;;;19.57;100.00;96788.69;4949540;28;20034;-73
2022/07/30 08:28:27;;;;;;;19.80;9.63;;;;;;;19.79;100.00;96790.75;4948163;28;20034;-73
2022/07/30 08:30:52;;;;;;;13.50;8.82;;;;;;;19.87;100.00;96788.13;4967440;28;20042;-73
2022/07/30 08:33:18;;;;;;;17.60;9.80;;;;;;;20.06;100.00;96779.88;4946764;28;20043;-73
2022/07/30 08:35:44;;;;;;;19.40;9.35;;;;;;;20.09;100.00;96792.09;4948296;28;20645;-73
2022/07/30 08:38:12;;;;;;;11.27;8.23;;;;;;;20.03;100.00;96797.59;4963835;28;20046;-73
2022/07/30 08:40:37;;;;;;;15.82;8.50;;;;;;;19.87;100.00;96796.28;4940231;28;20583;-73
2022/07/30 08:43:05;;;;;;;16.90;9.02;;;;;;;19.82;100.00;96801.00;4963878;28;20406;-73
2022/07/30 08:45:32;;;;;;;15.70;8.90;;;;;;;19.87;100.00;96806.34;4950262;28;20038;-73
2022/07/30 08:48:09;;;;;;;17.50;9.40;;;;;;;19.81;100.00;96802.09;4967616;28;20045;-73
2022/07/30 08:50:43;;;;;;;16.70;9.40;;;;;;;19.92;100.00;96811.66;4964572;28;20041;-73
2022/07/30 08:53:32;;;;;;;15.23;9.73;;;;;;;19.96;100.00;96804.53;4967274;28;20042;-73
2022/07/30 08:55:59;;;;;;;16.90;9.93;;;;;;;19.96;100.00;96809.97;4949567;28;20034;-73
2022/07/30 08:58:30;;;;;;;14.50;8.52;;;;;;;20.16;100.00;96806.88;4945619;28;20553;-73
2022/07/30 09:00:57;;;;;;;16.80;9.27;;;;;;;20.24;100.00;96814.31;4967265;28;20057;-73
2022/07/30 09:03:22;;;;;;;20.85;11.10;;;;;;;20.24;100.00;96803.47;4962401;28;20521;-73
2022/07/30 09:05:48;;;;;;;16.70;9.70;;;;;;;20.34;100.00;96812.50;4948121;28;20038;-73
2022/07/30 09:08:15;;;;;;;16.70;10.35;;;;;;;20.51;100.00;96807.28;4947703;28;20308;-73
2022/07/30 09:10:42;;;;;;;13.77;9.43;;;;;;;20.40;100.00;96816.75;4262373;28;10000491;-73
2022/07/30 09:13:24;;;;;;;15.57;8.93;;;;;;;20.62;100.00;96808.69;4946512;28;20112;-73
2022/07/30 09:15:53;;;;;;;16.20;9.48;;;;;;;20.84;100.00;96810.66;4963427;28;20038;-73
2022/07/30 09:18:39;;;;;;;19.83;8.73;;;;;;;20.98;100.00;96813.34;4960889;28;20030;-73
2022/07/30 09:21:23;;;;;;;14.30;8.48;;;;;;;21.23;100.00;96811.94;4965099;28;20042;-73
2022/07/30 09:24:00;;;;;;;14.43;8.20;;;;;;;21.51;100.00;96818.13;4946591;28;20288;-73
2022/07/30 09:26:55;;;;;;;18.27;9.40;;;;;;;21.84;100.00;96810.47;4948358;28;20650;-73
2022/07/30 09:29:57;;;;;;;18.80;9.25;;;;;;;22.43;98.74;96797.47;4952592;28;20050;-73
2022/07/30 09:32:52;;;;;;;12.20;8.57;;;;;;;22.74;97.50;96808.28;4964639;28;20074;-73
2022/07/30 09:35:36;;;;;;;17.95;8.80;;;;;;;22.54;98.68;96801.50;4964639;28;20544;-73
2022/07/30 09:38:08;;;;;;;14.30;8.43;;;;;;;22.24;98.55;96812.13;4964489;28;20125;-73
2022/07/30 09:41:14;;;;;;;14.00;9.13;;;;;;;22.64;95.62;96809.38;4962922;28;20108;-73
2022/07/30 09:43:50;;;;;;;19.42;9.00;;;;;;;22.21;98.44;96803.78;4946038;28;20223;-73
2022/07/30 09:46:43;;;;;;;12.98;8.02;;;;;;;22.05;97.05;96818.91;4963368;28;20045;-73
2022/07/30 09:49:14;;;;;;;15.40;8.15;;;;;;;22.20;96.27;96818.53;4945639;28;20682;-73
2022/07/30 09:51:40;;;;;;;12.73;7.40;;;;;;;22.24;95.58;96816.78;4947298;28;20033;-73
2022/07/30 09:54:05;;;;;;;17.27;7.50;;;;;;;22.53;94.76;96818.97;4955951;28;20498;-73
2022/07/30 09:56:31;;;;;;;12.20;7.13;;;;;;;22.85;91.17;96812.34;4949887;28;20035;-73
2022/07/30 09:58:58;;;;;;;11.90;6.47;;;;;;;23.47;88.82;96812.03;4944914;28;20238;-73
2022/07/30 10:01:24;;;;;;;10.15;5.50;;;;;;;24.11;86.55;96814.78;4952230;28;20164;-73
2022/07/30 10:04:07;;;;;;;10.07;5.82;;;;;;;23.87;85.38;96825.47;4963357;28;20061;-73
2022/07/30 10:06:55;;;;;;;11.40;5.70;;;;;;;23.63;88.50;96818.63;4945096;28;20055;-73
2022/07/30 10:09:34;;;;;;;8.85;5.32;;;;;;;23.20;89.01;96807.72;4961666;28;20734;-74
2022/07/30 10:12:03;;;;;;;10.15;6.10;;;;;;;22.54;90.14;96812.41;4943753;28;20042;-73
2022/07/30 10:14:35;;;;;;;12.80;5.68;;;;;;;22.55;89.90;96807.75;4948445;28;20109;-73
2022/07/30 10:17:03;;;;;;;12.18;5.88;;;;;;;22.83;88.15;96808.28;4946679;28;20050;-73
2022/07/30 10:19:31;;;;;;;10.73;4.68;;;;;;;23.02;88.04;96819.72;4946345;28;20432;-73
2022/07/30 10:22:00;;;;;;;10.15;4.93;;;;;;;23.27;86.98;96810.78;4960949;28;20034;-73
2022/07/30 10:24:44;;;;;;;8.60;4.55;;;;;;;23.77;84.78;96807.50;4965199;28;20206;-73
2022/07/30 10:27:33;;;;;;;9.73;5.00;;;;;;;24.18;84.70;96808.81;4947798;28;20596;-73
2022/07/30 10:30:04;;;;;;;;;;;;;;;24.21;82.81;96805.47;4969329;28;20614;-73
2022/07/30 10:32:31;;;;;;;9.35;4.80;;;;;;;24.40;81.03;96797.66;4966228;28;19929;-73
2022/07/30 10:34:57;;;;;;;11.88;4.72;;;;;;;24.41;80.71;96807.47;4969336;28;20522;-73
2022/07/30 10:37:26;;;;;;;9.98;4.72;;;;;;;24.77;79.91;96800.69;4966700;28;20045;-73
2022/07/30 10:40:09;;;;;;;7.93;4.75;;;;;;;25.31;73.13;96800.00;4968153;28;20062;-73
2022/07/30 10:42:49;;;;;;;10.50;5.03;;;;;;;25.45;77.94;96808.75;4968978;28;20033;-73
2022/07/30 10:45:27;;;;;;;11.95;5.95;;;;;;;25.85;73.55;96810.97;4968887;28;20050;-73
2022/07/30 10:47:54;;;;;;;10.80;5.13;;;;;;;26.17;69.95;96796.41;4967402;28;20116;-73
2022/07/30 10:50:25;;;;;;;9.15;4.60;;;;;;;25.29;73.93;96797.56;4968663;28;20026;-73
2022/07/30 10:52:55;;;;;;;;;;;;;;;24.77;75.17;96792.47;4965159;28;20602;-73
2022/07/30 10:55:29;;;;;;;9.80;5.07;;;;;;;25.02;77.77;96801.63;4969131;28;20226;-73
2022/07/30 10:58:15;;;;;;;11.13;5.22;;;;;;;25.75;67.80;96796.53;4962580;28;20042;-73
2022/07/30 11:00:50;;;;;;;8.38;4.68;;;;;;;26.15;65.38;96795.94;4952303;28;20098;-73
2022/07/30 11:03:26;;;;;;;9.43;4.90;;;;;;;26.06;57.86;96792.47;4968027;28;20047;-73
2022/07/30 11:06:15;;;;;;;10.60;4.72;;;;;;;26.54;59.55;96793.72;4967714;28;20045;-74
2022/07/30 11:08:43;;;;;;;7.35;4.00;;;;;;;26.79;56.67;96794.47;4960341;28;20432;-73
2022/07/30 11:11:21;;;;;;;9.73;4.47;;;;;;;27.17;50.82;96789.41;4967650;28;20054;-73
2022/07/30 11:13:55;;;;;;;9.88;3.60;;;;;;;27.47;48.21;96795.38;4968986;28;20030;-73
2022/07/30 11:16:30;;;;;;;9.98;4.30;;;;;;;27.34;48.07;96791.06;4970082;28;20034;-73
2022/07/30 11:19:15;;;;;;;6.15;4.28;;;;;;;27.17;47.29;96794.09;4966916;28;20223;-74
2022/07/30 11:21:42;;;;;;;6.15;3.85;;;;;;;26.30;54.24;96797.19;4968557;28;20049;-73
2022/07/30 11:24:39;;;;;;;6.10;4.15;;;;;;;27.97;47.25;96796.72;4968661;28;20030;-73
2022/07/30 11:27:05;;;;;;;12.75;4.60;;;;;;;30.61;38.14;96788.56;4965277;28;20469;-74
2022/07/30 11:29:38;;;;;;;6.63;3.75;;;;;;;32.61;32.54;96786.25;4967838;28;20033;-73
2022/07/30 11:32:36;;;;;;;11.20;4.43;;;;;;;34.53;29.28;96777.09;4964603;28;20045;-73
2022/07/30 11:35:21;;;;;;;10.55;4.60;;;;;;;35.37;28.28;96782.91;4931210;28;20394;-73
2022/07/30 11:38:10;;;;;;;8.85;3.10;;;;;;;36.07;26.72;96775.44;4964795;28;20090;-73
2022/07/30 11:40:44;;;;;;;7.03;3.40;;;;;;;36.26;25.14;96776.88;4950397;28;20026;-74
2022/07/30 11:43:32;;;;;;;10.15;3.58;;;;;;;32.44;30.53;96782.13;4967036;28;20316;-73